CheckWX is a tool to help pilots better visualize weather data.  It is not intended as a substitute for an official pre-flight weather briefing.

09:57:33 UTC

KOMA METAR
Eppley Airfield Airport
Omaha, Nebraska, USA
Current

1 hour ago

KOMA 310852Z 00000KT 10SM BKN060 OVC075 16/12 A3022 RMK AO2 SLP232 T01560122 58005
Observed
May-31 @ 08:52 UTC
Visibility
Flight Rules
VFR
Cloud Levels
  • Broken at 6,000' AGL
  • Overcast at 7,500' AGL
Temperature
16°C / 61°F
Dewpoint
12°C / 54°F
Humidity
77%
Altimeter
30.22" Hg
Pressure
1023.42 hPa
Previous

2 hours ago

KOMA 310752Z 00000KT 10SM OVC060 16/12 A3023 RMK AO2 SLP235 T01560117
Observed
May-31 @ 07:52 UTC
Visibility
Flight Rules
VFR
Cloud Levels
  • Overcast at 6,000' AGL
Temperature
16°C / 61°F
Dewpoint
12°C / 54°F
Humidity
77%
Altimeter
30.23" Hg
Pressure
1023.72 hPa
Previous

3 hours ago

KOMA 310652Z 00000KT 10SM BKN060 OVC075 16/12 A3023 RMK AO2 SLP237 T01560122
Observed
May-31 @ 06:52 UTC
Visibility
Flight Rules
VFR
Cloud Levels
  • Broken at 6,000' AGL
  • Overcast at 7,500' AGL
Temperature
16°C / 61°F
Dewpoint
12°C / 54°F
Humidity
77%
Altimeter
30.23" Hg
Pressure
1023.72 hPa